This is the latest recevied weather packets stored in our database for station/object FW7644. If no packets are shown the sender has not sent any weather packets the latest 10 day(s).
| Time | Temp. | Humidity | Pressure | Rain* | Wind** | Luminosity | Snow |
|---|---|---|---|---|---|---|---|
| 1778016088 | 20.56° C | 91% | 1022.9 hPa | 0 mm | - | - | - |
| 1778015786 | 20.56° C | 89% | 1022.8 hPa | 0 mm | - | - | - |
| 1778015484 | 21.11° C | 87% | 1022.8 hPa | 0 mm | - | - | - |
| 1778015182 | 21.11° C | 84% | 1022.8 hPa | 0 mm | - | - | - |
| 1778014881 | 21.67° C | 80% | 1022.7 hPa | 0 mm | - | - | - |
| 1778014578 | 22.22° C | 77% | 1022.6 hPa | 0 mm | - | - | - |
| 1778014276 | 22.22° C | 74% | 1022.6 hPa | 0 mm | - | - | - |
| 1778013974 | 22.78° C | 70% | 1022.5 hPa | 0 mm | - | - | - |
| 1778013673 | 23.33° C | 67% | 1022.4 hPa | 0 mm | - | - | - |
| 1778013372 | 23.33° C | 66% | 1022.4 hPa | 0 mm | - | - | - |
| 1778013070 | 23.89° C | 64% | 1022.4 hPa | 0 mm | - | - | - |
| 1778012768 | 23.89° C | 62% | 1022.4 hPa | 0 mm | - | - | - |
| 1778012466 | 24.44° C | 61% | 1022.3 hPa | 0 mm | - | - | - |
| 1778012164 | 25° C | 60% | 1022.3 hPa | 0 mm | - | - | - |
| 1778011862 | 25° C | 59% | 1022.3 hPa | 0 mm | - | - | - |
| 1778011560 | 25.56° C | 57% | 1022.3 hPa | 0 mm | - | - | - |
| 1778011259 | 25.56° C | 57% | 1022.4 hPa | 0 mm | - | - | - |
| 1778010957 | 25.56° C | 56% | 1022.4 hPa | 0 mm | - | - | - |
| 1778010655 | 26.67° C | 52% | 1022.3 hPa | 0 mm | - | - | - |
| 1778010353 | 26.67° C | 52% | 1022.3 hPa | 0 mm | - | - | - |
| 1778010051 | 26.11° C | 54% | 1022.3 hPa | 0 mm | - | - | - |
| 1778009749 | 25.56° C | 54% | 1022.2 hPa | 0 mm | - | - | - |
| 1778009447 | 25.56° C | 54% | 1022.2 hPa | 0 mm | - | - | - |
| 1778009146 | 25.56° C | 53% | 1022.2 hPa | 0 mm | - | - | - |
| 1778008844 | 26.11° C | 52% | 1022.1 hPa | 0 mm | - | - | - |
* Rain latest hour (hover to see other rain measurements)
** Current wind speed in m/s (hover to see current wind gust speed)